createdAt,value
2023-05-25T00:02:26.986Z,100.00
2023-05-25T00:04:54.833Z,100.00
2023-05-25T00:07:22.608Z,100.00
2023-05-25T00:09:51.709Z,100.00
2023-05-25T00:12:19.605Z,100.00
2023-05-25T00:14:48.099Z,100.00
2023-05-25T00:17:18.527Z,100.00
2023-05-25T00:19:46.769Z,100.00
2023-05-25T00:22:14.862Z,100.00
2023-05-25T00:24:42.643Z,100.00
2023-05-25T00:27:11.897Z,100.00
2023-05-25T00:29:40.018Z,100.00
2023-05-25T00:32:08.590Z,100.00
2023-05-25T00:34:37.364Z,100.00
2023-05-25T00:37:05.503Z,100.00
2023-05-25T00:39:33.262Z,100.00
2023-05-25T00:42:03.720Z,100.00
2023-05-25T00:44:33.469Z,100.00
2023-05-25T00:47:03.009Z,100.00
2023-05-25T00:49:32.615Z,100.00
2023-05-25T00:52:00.610Z,100.00
2023-05-25T00:54:28.852Z,100.00
2023-05-25T00:57:02.586Z,100.00
2023-05-25T00:59:40.718Z,100.00
2023-05-25T01:02:10.746Z,100.00
2023-05-25T01:04:45.465Z,100.00
2023-05-25T01:07:22.182Z,100.00
2023-05-25T01:09:55.241Z,100.00
2023-05-25T01:12:25.002Z,100.00
2023-05-25T01:14:55.389Z,100.00
2023-05-25T01:17:23.383Z,100.00
2023-05-25T01:20:08.823Z,100.00
2023-05-25T01:22:44.703Z,100.00
2023-05-25T01:25:17.152Z,100.00
2023-05-25T01:27:48.033Z,100.00
2023-05-25T01:30:18.070Z,100.00
2023-05-25T01:32:46.713Z,100.00
2023-05-25T01:35:15.998Z,100.00
2023-05-25T01:37:48.826Z,100.00
2023-05-25T01:40:17.351Z,100.00
2023-05-25T01:42:45.095Z,100.00
2023-05-25T01:45:15.163Z,100.00
2023-05-25T01:47:47.820Z,100.00
2023-05-25T01:50:23.644Z,100.00
2023-05-25T01:52:59.319Z,100.00
2023-05-25T01:55:29.939Z,100.00
2023-05-25T01:58:00.161Z,100.00
2023-05-25T02:00:31.833Z,100.00
2023-05-25T02:03:02.041Z,100.00
2023-05-25T02:05:29.862Z,100.00
2023-05-25T02:07:59.025Z,100.00
2023-05-25T02:10:26.786Z,100.00
2023-05-25T02:12:54.567Z,100.00
2023-05-25T02:15:22.685Z,100.00
2023-05-25T02:17:50.693Z,100.00
2023-05-25T02:20:18.629Z,100.00
2023-05-25T02:22:46.380Z,100.00
2023-05-25T02:25:15.612Z,100.00
2023-05-25T02:27:43.947Z,100.00
2023-05-25T02:30:12.469Z,100.00
2023-05-25T02:32:40.878Z,100.00
2023-05-25T02:35:09.323Z,100.00
2023-05-25T02:37:37.180Z,100.00
2023-05-25T02:40:07.116Z,100.00
2023-05-25T02:42:36.644Z,100.00
2023-05-25T02:45:06.454Z,100.00
2023-05-25T02:47:34.267Z,100.00
2023-05-25T02:50:02.140Z,100.00
2023-05-25T02:52:30.892Z,100.00
2023-05-25T02:54:58.988Z,100.00
2023-05-25T02:57:26.982Z,100.00
2023-05-25T02:59:57.303Z,100.00
2023-05-25T03:02:26.085Z,100.00
2023-05-25T03:04:54.154Z,100.00
2023-05-25T03:07:22.013Z,100.00
2023-05-25T03:09:49.997Z,100.00
2023-05-25T03:12:17.798Z,100.00
2023-05-25T03:14:45.550Z,100.00
2023-05-25T03:17:14.711Z,100.00
2023-05-25T03:19:42.626Z,100.00
2023-05-25T03:22:10.891Z,100.00
2023-05-25T03:24:41.840Z,100.00
2023-05-25T03:27:09.807Z,100.00
2023-05-25T03:29:37.932Z,100.00
2023-05-25T03:32:06.301Z,100.00
2023-05-25T03:34:36.379Z,100.00
2023-05-25T03:37:04.195Z,100.00
2023-05-25T03:39:31.904Z,100.00
2023-05-25T03:41:59.999Z,100.00
2023-05-25T03:44:27.779Z,100.00
2023-05-25T03:46:55.625Z,100.00
2023-05-25T03:49:23.370Z,100.00
2023-05-25T03:51:52.481Z,100.00
2023-05-25T03:54:20.284Z,100.00
2023-05-25T03:56:48.195Z,100.00
2023-05-25T03:59:16.002Z,100.00
2023-05-25T04:01:44.019Z,100.00
2023-05-25T04:04:12.049Z,100.00
2023-05-25T04:06:40.180Z,100.00
2023-05-25T04:09:10.055Z,100.00
2023-05-25T04:11:37.970Z,100.00
2023-05-25T04:14:05.731Z,100.00
2023-05-25T04:16:33.681Z,100.00
2023-05-25T04:19:01.535Z,100.00
2023-05-25T04:21:29.378Z,100.00
2023-05-25T04:23:57.410Z,100.00
2023-05-25T04:26:26.949Z,100.00
2023-05-25T04:28:55.907Z,100.00
2023-05-25T04:31:24.982Z,100.00
2023-05-25T04:33:52.811Z,100.00
2023-05-25T04:36:20.933Z,100.00
2023-05-25T04:38:48.734Z,100.00
2023-05-25T04:41:16.777Z,100.00
2023-05-25T04:44:03.610Z,100.00
2023-05-25T04:46:37.792Z,100.00
2023-05-25T04:49:05.794Z,100.00
2023-05-25T04:51:33.615Z,100.00
2023-05-25T04:54:02.050Z,100.00
2023-05-25T04:56:30.184Z,100.00
2023-05-25T04:58:59.447Z,100.00
2023-05-25T05:01:27.554Z,100.00
2023-05-25T05:03:55.457Z,100.00
2023-05-25T05:06:25.724Z,100.00
2023-05-25T05:08:53.587Z,100.00
2023-05-25T05:11:23.519Z,100.00
2023-05-25T05:13:51.326Z,100.00
2023-05-25T05:16:20.827Z,100.00
2023-05-25T05:18:48.819Z,100.00
2023-05-25T05:21:16.616Z,100.00
2023-05-25T05:23:45.007Z,100.00
2023-05-25T05:26:15.173Z,100.00
2023-05-25T05:28:43.071Z,100.00
2023-05-25T05:31:12.220Z,100.00
2023-05-25T05:33:41.634Z,100.00
2023-05-25T05:36:09.885Z,100.00
2023-05-25T05:38:39.299Z,100.00
2023-05-25T05:41:13.415Z,100.00
2023-05-25T05:43:42.841Z,100.00
2023-05-25T05:46:11.050Z,100.00
2023-05-25T05:48:39.503Z,100.00
2023-05-25T05:51:11.067Z,100.00
2023-05-25T05:53:38.970Z,100.00
2023-05-25T05:56:07.291Z,100.00
2023-05-25T05:58:35.203Z,100.00
2023-05-25T06:01:03.495Z,100.00
2023-05-25T06:03:31.378Z,100.00
2023-05-25T06:05:59.168Z,100.00
2023-05-25T06:08:28.559Z,100.00
2023-05-25T06:10:57.028Z,100.00
2023-05-25T06:13:24.807Z,100.00
2023-05-25T06:15:52.569Z,100.00
2023-05-25T06:18:20.585Z,100.00
2023-05-25T06:20:48.512Z,100.00
2023-05-25T06:23:18.834Z,100.00
2023-05-25T06:25:48.081Z,100.00
2023-05-25T06:28:16.530Z,100.00
2023-05-25T06:30:44.280Z,100.00
2023-05-25T06:33:12.103Z,100.00
2023-05-25T06:35:39.951Z,100.00
2023-05-25T06:38:08.801Z,100.00
2023-05-25T06:40:36.574Z,100.00
2023-05-25T06:43:06.253Z,100.00
2023-05-25T06:45:34.220Z,100.00
2023-05-25T06:48:02.147Z,100.00
2023-05-25T06:50:29.997Z,100.00
2023-05-25T06:52:59.796Z,100.00
2023-05-25T06:55:28.280Z,100.00
2023-05-25T06:57:56.181Z,100.00
2023-05-25T07:00:25.519Z,100.00
2023-05-25T07:02:53.516Z,100.00
2023-05-25T07:05:21.910Z,100.00
2023-05-25T07:07:49.873Z,100.00
2023-05-25T07:10:18.488Z,100.00
2023-05-25T07:12:46.274Z,100.00
2023-05-25T07:15:15.386Z,100.00
2023-05-25T07:17:45.476Z,100.00
2023-05-25T07:20:14.546Z,100.00
2023-05-25T07:22:43.757Z,100.00
2023-05-25T07:25:11.628Z,100.00
2023-05-25T07:27:40.116Z,100.00
2023-05-25T07:30:09.359Z,100.00
2023-05-25T07:32:38.553Z,100.00
2023-05-25T07:35:08.836Z,100.00
2023-05-25T07:37:36.624Z,100.00
2023-05-25T07:40:06.160Z,100.00
2023-05-25T07:42:35.395Z,100.00
2023-05-25T07:45:03.706Z,100.00
2023-05-25T07:47:31.574Z,100.00
2023-05-25T07:49:59.518Z,100.00
2023-05-25T07:52:28.634Z,100.00
2023-05-25T07:54:56.544Z,100.00
2023-05-25T07:57:25.293Z,100.00
2023-05-25T07:59:53.076Z,100.00
2023-05-25T08:02:21.033Z,100.00
2023-05-25T08:04:48.898Z,100.00
2023-05-25T08:07:16.737Z,100.00
2023-05-25T08:09:45.947Z,100.00
2023-05-25T08:12:34.266Z,100.00
2023-05-25T08:15:01.780Z,100.00
2023-05-25T08:17:29.700Z,100.00
2023-05-25T08:19:58.085Z,100.00
2023-05-25T08:22:25.846Z,100.00
2023-05-25T08:24:54.986Z,100.00
2023-05-25T08:27:22.826Z,100.00
2023-05-25T08:29:50.663Z,100.00
2023-05-25T08:32:18.463Z,97.51
2023-05-25T08:34:46.258Z,100.00
2023-05-25T08:37:14.077Z,100.00
2023-05-25T08:39:42.036Z,100.00
2023-05-25T08:42:11.374Z,100.00
2023-05-25T08:44:40.508Z,100.00
2023-05-25T08:47:08.805Z,100.00
2023-05-25T08:49:39.418Z,100.00
2023-05-25T08:52:11.725Z,100.00
2023-05-25T08:54:40.254Z,100.00
2023-05-25T08:57:14.506Z,100.00
2023-05-25T08:59:47.863Z,100.00
2023-05-25T09:02:34.192Z,100.00
2023-05-25T09:05:02.824Z,100.00
2023-05-25T09:07:33.235Z,100.00
2023-05-25T09:10:02.714Z,97.19
2023-05-25T09:12:32.622Z,100.00
2023-05-25T09:15:00.878Z,100.00
2023-05-25T09:17:29.196Z,100.00
2023-05-25T09:19:57.320Z,100.00
2023-05-25T09:22:25.197Z,100.00
2023-05-25T09:24:53.710Z,100.00
2023-05-25T09:27:24.009Z,100.00
2023-05-25T09:29:53.431Z,100.00
2023-05-25T09:32:21.353Z,100.00
2023-05-25T09:34:49.188Z,96.66
2023-05-25T09:37:19.456Z,100.00
2023-05-25T09:39:47.804Z,100.00
2023-05-25T09:42:16.001Z,100.00
2023-05-25T09:44:43.850Z,100.00
2023-05-25T09:47:14.007Z,92.20
2023-05-25T09:49:44.572Z,100.00
2023-05-25T09:52:13.899Z,94.52
2023-05-25T09:54:45.550Z,94.64
2023-05-25T09:57:13.399Z,100.00
2023-05-25T09:59:41.296Z,97.13
2023-05-25T10:02:09.410Z,95.18
2023-05-25T10:04:38.852Z,91.29
2023-05-25T10:07:07.215Z,94.58
2023-05-25T10:09:40.855Z,94.59
2023-05-25T10:12:09.901Z,99.42
2023-05-25T10:14:39.274Z,96.61
2023-05-25T10:17:08.282Z,93.17
2023-05-25T10:19:41.961Z,93.70
2023-05-25T10:22:17.345Z,89.19
2023-05-25T10:24:56.254Z,79.06
2023-05-25T10:27:27.849Z,77.56
2023-05-25T10:29:57.237Z,86.19
2023-05-25T10:32:25.941Z,85.49
2023-05-25T10:34:58.330Z,84.01
2023-05-25T10:37:28.294Z,90.63
2023-05-25T10:39:57.843Z,90.81
2023-05-25T10:42:27.161Z,90.85
2023-05-25T10:44:56.714Z,91.05
2023-05-25T10:47:25.649Z,87.13
2023-05-25T10:49:57.758Z,92.80
2023-05-25T10:52:28.903Z,90.33
2023-05-25T10:54:57.577Z,90.46
2023-05-25T10:57:26.382Z,89.31
2023-05-25T10:59:59.905Z,89.09
2023-05-25T11:02:29.129Z,88.25
2023-05-25T11:05:29.975Z,88.24
2023-05-25T11:08:00.570Z,86.30
2023-05-25T11:10:53.297Z,92.65
2023-05-25T11:13:33.683Z,89.29
2023-05-25T11:16:18.624Z,88.18
2023-05-25T11:18:51.581Z,89.80
2023-05-25T11:21:24.945Z,90.46
2023-05-25T11:23:59.435Z,90.06
2023-05-25T11:26:29.861Z,90.80
2023-05-25T11:28:59.845Z,82.52
2023-05-25T11:31:35.241Z,85.71
2023-05-25T11:34:06.927Z,82.62
2023-05-25T11:36:37.396Z,86.11
2023-05-25T11:39:17.169Z,83.47
2023-05-25T11:41:51.406Z,78.23
2023-05-25T11:44:27.423Z,83.47
2023-05-25T11:46:57.680Z,82.58
2023-05-25T11:49:26.003Z,82.67
2023-05-25T11:51:54.689Z,86.45
2023-05-25T11:54:25.858Z,81.49
2023-05-25T11:56:56.583Z,81.28
2023-05-25T11:59:26.351Z,85.86
2023-05-25T12:01:59.489Z,83.43
2023-05-25T12:04:27.370Z,76.12
2023-05-25T12:07:02.910Z,79.39
2023-05-25T12:09:32.659Z,80.35
2023-05-25T12:12:02.414Z,79.66
2023-05-25T12:14:30.432Z,69.29
2023-05-25T12:16:58.755Z,70.86
2023-05-25T12:19:26.623Z,67.25
2023-05-25T12:21:55.860Z,72.84
2023-05-25T12:24:25.098Z,64.48
2023-05-25T12:26:57.758Z,62.73
2023-05-25T12:29:26.176Z,60.86
2023-05-25T12:31:54.249Z,61.63
2023-05-25T12:34:22.386Z,60.28
2023-05-25T12:36:51.758Z,64.56
2023-05-25T12:39:34.765Z,72.16
2023-05-25T12:42:04.432Z,65.12
2023-05-25T12:44:35.015Z,67.80
2023-05-25T12:47:13.240Z,63.55
2023-05-25T12:49:42.643Z,66.42
2023-05-25T12:52:11.693Z,62.87
2023-05-25T12:54:45.070Z,68.16
2023-05-25T12:57:16.410Z,74.69
2023-05-25T12:59:45.534Z,73.52
2023-05-25T13:02:14.614Z,75.51
2023-05-25T13:04:44.501Z,82.75
2023-05-25T13:07:12.726Z,75.06
2023-05-25T13:09:41.934Z,66.99
2023-05-25T13:12:09.905Z,67.56
2023-05-25T13:14:39.108Z,67.98
2023-05-25T13:17:06.940Z,72.31
2023-05-25T13:19:34.706Z,70.16
2023-05-25T13:22:02.620Z,68.54
2023-05-25T13:24:30.912Z,70.20
2023-05-25T13:26:58.752Z,70.10
2023-05-25T13:29:26.715Z,65.77
2023-05-25T13:31:58.525Z,68.18
2023-05-25T13:34:28.098Z,62.88
2023-05-25T13:36:56.852Z,69.95
2023-05-25T13:39:24.579Z,69.19
2023-05-25T13:41:52.392Z,75.70
2023-05-25T13:44:20.252Z,68.15
2023-05-25T13:46:48.381Z,59.28
2023-05-25T13:49:19.597Z,60.95
2023-05-25T13:51:47.516Z,61.09
2023-05-25T13:54:15.333Z,61.83
2023-05-25T13:56:43.108Z,72.95
2023-05-25T13:59:11.408Z,77.06
2023-05-25T14:01:39.450Z,74.88
2023-05-25T14:04:07.513Z,68.43
2023-05-25T14:06:36.830Z,69.71
2023-05-25T14:09:04.767Z,66.07
2023-05-25T14:11:32.582Z,66.89
2023-05-25T14:14:00.904Z,70.92
2023-05-25T14:16:28.883Z,66.40
2023-05-25T14:18:57.312Z,67.05
2023-05-25T14:21:25.457Z,65.92
2023-05-25T14:23:55.017Z,73.56
2023-05-25T14:26:23.075Z,71.81
2023-05-25T14:28:51.512Z,72.70
2023-05-25T14:31:19.409Z,74.17
2023-05-25T14:33:47.304Z,78.12
2023-05-25T14:36:15.111Z,80.92
2023-05-25T14:38:43.276Z,73.96
2023-05-25T14:41:12.463Z,76.31
2023-05-25T14:43:40.571Z,72.56
2023-05-25T14:46:10.189Z,71.05
2023-05-25T14:48:38.039Z,74.45
2023-05-25T14:51:05.947Z,78.52
2023-05-25T14:53:33.796Z,83.07
2023-05-25T14:56:02.713Z,86.35
2023-05-25T14:58:32.860Z,82.17
2023-05-25T15:01:00.639Z,76.53
2023-05-25T15:03:28.470Z,78.65
2023-05-25T15:05:56.405Z,88.53
2023-05-25T15:08:24.190Z,85.91
2023-05-25T15:10:51.981Z,79.92
2023-05-25T15:13:22.577Z,80.84
2023-05-25T15:15:54.544Z,80.05
2023-05-25T15:18:22.452Z,80.00
2023-05-25T15:20:50.526Z,84.92
2023-05-25T15:23:18.731Z,87.79
2023-05-25T15:25:47.131Z,86.39
2023-05-25T15:28:14.908Z,88.33
2023-05-25T15:30:42.600Z,82.67
2023-05-25T15:33:13.893Z,82.71
2023-05-25T15:35:41.899Z,86.01
2023-05-25T15:38:09.728Z,90.58
2023-05-25T15:40:37.786Z,91.13
2023-05-25T15:43:05.706Z,91.96
2023-05-25T15:45:33.486Z,87.81
2023-05-25T15:48:01.310Z,88.42
2023-05-25T15:50:30.831Z,86.76
2023-05-25T15:52:58.548Z,84.57
2023-05-25T15:55:26.396Z,90.27
2023-05-25T15:57:54.173Z,85.04
2023-05-25T16:00:22.764Z,81.34
2023-05-25T16:02:50.585Z,85.65
2023-05-25T16:05:18.390Z,78.78
2023-05-25T16:07:47.600Z,79.40
2023-05-25T16:10:15.450Z,80.47
2023-05-25T16:12:43.552Z,79.61
2023-05-25T16:15:12.083Z,78.06
2023-05-25T16:17:39.911Z,79.67
2023-05-25T16:20:09.427Z,79.92
2023-05-25T16:22:37.577Z,84.13
2023-05-25T16:25:07.820Z,83.12
2023-05-25T16:27:35.714Z,81.31
2023-05-25T16:30:03.959Z,80.97
2023-05-25T16:32:32.753Z,86.04
2023-05-25T16:35:00.722Z,82.51
2023-05-25T16:37:28.924Z,82.39
2023-05-25T16:39:56.749Z,80.90
2023-05-25T16:42:26.750Z,82.54
2023-05-25T16:44:54.593Z,81.55
2023-05-25T16:47:22.747Z,77.82
2023-05-25T16:49:50.589Z,77.46
2023-05-25T16:52:19.223Z,77.09
2023-05-25T16:54:47.025Z,81.62
2023-05-25T16:57:14.792Z,76.70
2023-05-25T16:59:43.971Z,77.73
2023-05-25T17:02:11.688Z,76.89
2023-05-25T17:04:39.470Z,81.01
2023-05-25T17:07:07.575Z,85.27
2023-05-25T17:09:35.392Z,81.05
2023-05-25T17:12:03.714Z,83.88
2023-05-25T17:14:31.563Z,81.17
2023-05-25T17:17:00.697Z,82.18
2023-05-25T17:19:28.496Z,84.03
2023-05-25T17:21:56.399Z,85.31
2023-05-25T17:24:24.212Z,83.44
2023-05-25T17:26:52.046Z,86.88
2023-05-25T17:29:20.765Z,87.38
2023-05-25T17:31:49.031Z,87.17
2023-05-25T17:34:18.787Z,87.16
2023-05-25T17:36:46.605Z,88.83
2023-05-25T17:39:14.824Z,87.77
2023-05-25T17:41:42.609Z,88.36
2023-05-25T17:44:10.700Z,90.83
2023-05-25T17:46:38.491Z,86.20
2023-05-25T17:49:06.696Z,87.42
2023-05-25T17:51:37.528Z,89.20
2023-05-25T17:54:05.733Z,88.38
2023-05-25T17:56:33.924Z,89.04
2023-05-25T17:59:01.716Z,89.52
2023-05-25T18:01:29.551Z,93.80
2023-05-25T18:03:57.690Z,89.48
2023-05-25T18:06:27.244Z,89.91
2023-05-25T18:08:58.592Z,91.85
2023-05-25T18:11:28.689Z,94.08
2023-05-25T18:13:56.868Z,94.53
2023-05-25T18:16:24.720Z,92.09
2023-05-25T18:18:52.591Z,95.15
2023-05-25T18:21:20.438Z,92.21
2023-05-25T18:23:49.115Z,92.26
2023-05-25T18:26:18.251Z,91.41
2023-05-25T18:28:45.985Z,91.87
2023-05-25T18:31:13.980Z,93.63
2023-05-25T18:33:41.949Z,95.47
2023-05-25T18:36:10.007Z,98.39
2023-05-25T18:38:37.778Z,100.00
2023-05-25T18:41:05.762Z,100.00
2023-05-25T18:43:34.926Z,100.00
2023-05-25T18:46:02.783Z,100.00
2023-05-25T18:48:30.706Z,100.00
2023-05-25T18:50:58.421Z,100.00
2023-05-25T18:53:26.138Z,100.00
2023-05-25T18:55:54.309Z,100.00
2023-05-25T18:58:22.113Z,100.00
2023-05-25T19:00:51.358Z,100.00
2023-05-25T19:03:19.347Z,100.00
2023-05-25T19:05:47.623Z,100.00
2023-05-25T19:08:15.552Z,100.00
2023-05-25T19:10:43.431Z,100.00
2023-05-25T19:13:11.374Z,100.00
2023-05-25T19:15:39.305Z,100.00
2023-05-25T19:18:08.517Z,100.00
2023-05-25T19:20:36.720Z,100.00
2023-05-25T19:23:04.494Z,100.00
2023-05-25T19:25:32.280Z,100.00
2023-05-25T19:28:00.523Z,100.00
2023-05-25T19:30:28.313Z,100.00
2023-05-25T19:32:56.088Z,100.00
2023-05-25T19:35:25.244Z,100.00
2023-05-25T19:37:53.055Z,100.00
2023-05-25T19:40:20.936Z,100.00
2023-05-25T19:42:48.790Z,100.00
2023-05-25T19:45:19.505Z,100.00
2023-05-25T19:47:47.510Z,100.00
2023-05-25T19:50:15.571Z,100.00
2023-05-25T19:52:44.857Z,100.00
2023-05-25T19:55:12.662Z,100.00
2023-05-25T19:57:40.443Z,100.00
2023-05-25T20:00:20.823Z,100.00
2023-05-25T20:02:53.444Z,100.00
2023-05-25T20:05:21.321Z,100.00
2023-05-25T20:07:52.287Z,100.00
2023-05-25T20:10:20.450Z,100.00
2023-05-25T20:12:48.276Z,100.00
2023-05-25T20:15:16.704Z,100.00
2023-05-25T20:17:44.628Z,100.00
2023-05-25T20:20:12.651Z,100.00
2023-05-25T20:22:41.342Z,100.00
2023-05-25T20:25:10.572Z,100.00
2023-05-25T20:27:38.401Z,100.00
2023-05-25T20:30:07.532Z,100.00
2023-05-25T20:32:35.326Z,100.00
2023-05-25T20:35:03.150Z,100.00
2023-05-25T20:37:30.916Z,100.00
2023-05-25T20:39:58.723Z,100.00
2023-05-25T20:42:27.873Z,100.00
2023-05-25T20:44:55.808Z,100.00
2023-05-25T20:47:23.924Z,100.00
2023-05-25T20:49:51.733Z,100.00
2023-05-25T20:52:21.409Z,100.00
2023-05-25T20:54:49.584Z,100.00
2023-05-25T20:57:17.681Z,100.00
2023-05-25T20:59:46.872Z,100.00
2023-05-25T21:02:14.692Z,100.00
2023-05-25T21:04:42.859Z,100.00
2023-05-25T21:07:10.726Z,100.00
2023-05-25T21:09:38.489Z,100.00
2023-05-25T21:12:07.620Z,100.00
2023-05-25T21:14:35.690Z,100.00
2023-05-25T21:17:04.937Z,100.00
2023-05-25T21:19:32.681Z,100.00
2023-05-25T21:22:01.324Z,100.00
2023-05-25T21:24:29.188Z,100.00
2023-05-25T21:26:56.907Z,100.00
2023-05-25T21:29:24.815Z,100.00
2023-05-25T21:31:52.647Z,100.00
2023-05-25T21:34:21.845Z,100.00
2023-05-25T21:36:50.468Z,100.00
2023-05-25T21:39:18.252Z,100.00
2023-05-25T21:41:46.527Z,100.00
2023-05-25T21:44:14.389Z,100.00
2023-05-25T21:46:42.559Z,100.00
2023-05-25T21:49:10.727Z,100.00
2023-05-25T21:51:40.225Z,100.00
2023-05-25T21:54:08.069Z,100.00
2023-05-25T21:56:36.020Z,100.00
2023-05-25T21:59:03.912Z,100.00
2023-05-25T22:01:32.071Z,100.00
2023-05-25T22:03:59.980Z,100.00
2023-05-25T22:06:27.771Z,100.00
2023-05-25T22:08:57.217Z,100.00
2023-05-25T22:11:25.642Z,100.00
2023-05-25T22:13:53.690Z,100.00
2023-05-25T22:16:21.702Z,100.00
2023-05-25T22:18:49.624Z,100.00
2023-05-25T22:21:17.419Z,100.00
2023-05-25T22:23:45.209Z,100.00
2023-05-25T22:26:14.630Z,100.00
2023-05-25T22:28:42.538Z,100.00
2023-05-25T22:31:11.678Z,100.00
2023-05-25T22:33:39.866Z,100.00
2023-05-25T22:36:08.025Z,100.00
2023-05-25T22:38:35.778Z,100.00
2023-05-25T22:41:03.694Z,100.00
2023-05-25T22:43:32.855Z,100.00
2023-05-25T22:46:00.877Z,100.00
2023-05-25T22:48:28.849Z,100.00
2023-05-25T22:50:56.839Z,100.00
2023-05-25T22:53:24.976Z,100.00
2023-05-25T22:55:52.715Z,100.00
2023-05-25T22:58:20.484Z,100.00
2023-05-25T23:00:49.651Z,100.00
2023-05-25T23:03:17.516Z,100.00
2023-05-25T23:05:45.633Z,100.00
2023-05-25T23:08:16.003Z,100.00
2023-05-25T23:10:43.751Z,100.00
2023-05-25T23:13:12.173Z,100.00
2023-05-25T23:15:40.550Z,100.00
2023-05-25T23:18:09.757Z,100.00
2023-05-25T23:20:37.576Z,100.00
2023-05-25T23:23:05.445Z,100.00
2023-05-25T23:25:33.564Z,100.00
2023-05-25T23:28:01.365Z,100.00
2023-05-25T23:30:29.555Z,100.00
2023-05-25T23:32:57.415Z,100.00
2023-05-25T23:35:26.785Z,100.00
2023-05-25T23:37:55.030Z,100.00
2023-05-25T23:40:22.879Z,100.00
2023-05-25T23:42:52.015Z,100.00
2023-05-25T23:45:19.815Z,100.00
2023-05-25T23:47:47.796Z,100.00
2023-05-25T23:50:15.626Z,100.00
2023-05-25T23:52:46.077Z,100.00
2023-05-25T23:55:14.194Z,100.00
2023-05-25T23:57:42.102Z,100.00
